Hlavní strana
METAR-TAF:

METAR-TAF

Letiště :

Letiště Fua'amotu

Tongatapu, Tonga

zeměpisná šířka: 21-14S, zeměpisná délka: 175-09W, výška: 38 m

Aktuální stav počasí

Zpráva byla vytvořena před 1 hodinou a 9 minutami, v 21:00 UTC
Východní vítr 8 kt
Teplota 28°C
Vlhkost vzduchu 84%
Tlak 1012 hPa
Viditelnost 10 km a více
Skoro jasno ve výšce 1900 ft

METAR: NFTF 212100Z 10008KT 9999 FEW019 28/25 Q1012

Čas: 11:09 (22:09 UTC)

Předpověď počasí

Zpráva byla vytvořena před 5 hodinami a 2 minutami, v 17:07 UTC
Předpověď platná od 21 v 18 UTC do 22 v 18 UTC
Východojihovýchodní vítr 10 kt
Viditelnost 10 km a více
Polojasno ve výšce 1800 ft

TAF: NFTF 211707Z 2118/2218 12010KT 9999 SCT018

Stav a předpovědi počasí z více než 4 000 letišť (zprávy METAR a TAF).

Červené a žluté tečky na mapě představují dostupné meteorologické stanice.

Když kurzor umístíte na tečku, zobrazí se název stanice.

Pak kliknutím zobrazíte stav a předpověď počasí.

Chcete-li změnit mapu, kliknutím na zelené tlačítko se znaménkem +mapu přiblížíte, kliknutím na zelené tlačítko se znaménkem – mapu oddálíte a kliknutím na zelené šipky přejdete na sousední mapy.


METAR-TAF: